Terminal Aerodrome Forecast
Issued by NWS Charleston, WV

Current Version | Previous Version | Text Only | Print | Product List | Glossary Off
Versions: 1 2 3 4 5 6 7 8 9 10 11 12 13 14 15 16 17 18 19 20 21 22 23 24 25 26 27

000
FTUS41 KRLX 302300 RRA
TAFPKB
TAF
KPKB 302346Z 3100/3124 19004KT P6SM SCT250
     FM310900 21006KT 6SM -SHRA OVC035 PROB30 3109/3112 5SM -TSRA
      OVC030CB
     FM311200 19005KT P6SM VCSH OVC025
     FM311600 23006KT 4SM SHRA VCTS OVC025CB PROB30 3116/3119 2SM
      -TSRA OVC025CB
     FM312000 22006KT 6SM SHRA OVC040=

USA.gov is the U.S. government's official web portal to all federal, state and local government web resources and services.